Time;durP1;ratioP1;P1;durP2;ratioP2;P2;SDS_P1;SDS_P2;PMS_P1;PMS_P2;Temp;Humidity;BMP_temperature;BMP_pressure;BME280_temperature;BME280_humidity;BME280_pressure;Samples;Min_cycle;Max_cycle;Signal;HPM_P1;HPM_P2
2023/07/22 00:01:04;;;;;;;7.00;4.00;;;22.30;60.70;;;;;;7383893;19;20007;-74
2023/07/22 00:03:33;;;;;;;;;;;22.20;60.60;;;;;;7385102;19;20014;-74
2023/07/22 00:06:13;;;;;;;6.38;3.60;;;22.20;60.60;;;;;;7405684;19;19911;-74
2023/07/22 00:08:42;;;;;;;7.80;4.40;;;22.10;60.30;;;;;;7385345;19;20007;-74
2023/07/22 00:11:10;;;;;;;14.35;4.40;;;22.10;59.70;;;;;;7383658;19;20007;-73
2023/07/22 00:13:39;;;;;;;7.20;4.57;;;22.00;59.80;;;;;;7383787;19;20381;-73
2023/07/22 00:19:19;;;;;;;10.38;4.45;;;21.90;60.60;;;;;;7384876;19;19995;-73
2023/07/22 00:21:51;;;;;;;8.23;4.90;;;21.90;60.50;;;;;;7384746;19;20074;-74
2023/07/22 00:24:22;;;;;;;15.60;4.53;;;21.80;60.50;;;;;;7386309;19;20006;-74
2023/07/22 00:26:52;;;;;;;7.40;4.30;;;21.70;60.50;;;;;;7404256;19;20007;-74
2023/07/22 00:29:20;;;;;;;7.80;4.18;;;21.70;60.10;;;;;;7384256;19;20066;-74
2023/07/22 00:31:49;;;;;;;7.95;4.38;;;21.60;60.10;;;;;;7382958;19;20007;-73
2023/07/22 00:34:18;;;;;;;8.52;4.55;;;21.60;60.40;;;;;;7383826;19;20003;-74
2023/07/22 00:36:49;;;;;;;11.95;4.80;;;21.50;60.90;;;;;;7384131;19;20247;-73
2023/07/22 00:39:18;;;;;;;;;;;21.40;61.50;;;;;;7385251;19;20003;-73
2023/07/22 00:41:47;;;;;;;7.80;4.50;;;21.40;61.90;;;;;;7405051;19;19924;-73
2023/07/22 00:44:16;;;;;;;7.10;4.30;;;21.40;62.00;;;;;;7383098;19;20286;-74
2023/07/22 00:46:45;;;;;;;8.57;5.00;;;21.40;62.10;;;;;;7383865;19;20020;-72
2023/07/22 00:49:17;;;;;;;6.93;4.70;;;21.40;62.00;;;;;;7385585;19;20003;-72
2023/07/22 00:51:45;;;;;;;9.10;4.43;;;21.40;61.90;;;;;;7383328;19;20006;-73
2023/07/22 00:54:17;;;;;;;8.40;4.72;;;21.50;61.90;;;;;;7378305;19;20023;-73
2023/07/22 00:56:47;;;;;;;8.93;4.38;;;21.50;61.50;;;;;;7403362;19;20006;-72
2023/07/22 00:59:17;;;;;;;6.35;4.20;;;21.50;61.00;;;;;;7382261;19;20024;-73
2023/07/22 01:01:46;;;;;;;8.55;5.03;;;21.40;61.00;;;;;;7382147;19;20076;-72
2023/07/22 01:04:18;;;;;;;8.65;4.72;;;21.30;61.20;;;;;;7384434;19;20014;-73
2023/07/22 01:06:48;;;;;;;7.70;4.28;;;21.20;61.40;;;;;;7381789;19;20027;-74
2023/07/22 01:09:19;;;;;;;8.20;4.65;;;21.20;61.60;;;;;;7381522;19;20007;-73
2023/07/22 01:11:48;;;;;;;;;;;21.10;61.50;;;;;;7405910;19;20010;-73
2023/07/22 01:14:17;;;;;;;7.03;4.35;;;21.10;61.80;;;;;;7383154;19;19902;-74
2023/07/22 01:16:48;;;;;;;11.63;5.05;;;21.10;61.70;;;;;;7381432;19;20076;-74
2023/07/22 01:19:20;;;;;;;10.93;4.85;;;21.10;61.90;;;;;;7381788;19;20016;-74
2023/07/22 01:21:50;;;;;;;8.32;5.10;;;21.10;62.20;;;;;;7381150;19;20062;-73
2023/07/22 01:24:21;;;;;;;11.07;5.35;;;21.10;62.10;;;;;;7382788;19;20006;-73
2023/07/22 01:26:50;;;;;;;9.15;4.90;;;21.00;62.20;;;;;;7403396;19;20006;-72
2023/07/22 01:29:19;;;;;;;7.93;5.20;;;20.90;62.30;;;;;;7383227;19;20019;-73
2023/07/22 01:31:50;;;;;;;7.22;4.95;;;20.90;62.60;;;;;;7382325;19;20014;-72
2023/07/22 01:34:19;;;;;;;8.63;5.18;;;20.90;62.60;;;;;;7381733;19;20019;-73
2023/07/22 01:36:50;;;;;;;9.85;4.78;;;20.90;62.60;;;;;;7381142;19;20010;-73
2023/07/22 01:39:21;;;;;;;9.32;4.63;;;20.90;62.50;;;;;;7381086;19;20003;-73
2023/07/22 01:41:50;;;;;;;9.15;5.20;;;20.90;62.40;;;;;;7402818;19;20029;-73
2023/07/22 01:44:19;;;;;;;10.98;4.93;;;20.80;62.40;;;;;;7382670;19;20014;-73
2023/07/22 01:46:48;;;;;;;9.50;5.10;;;20.80;62.70;;;;;;7381258;19;20250;-73
2023/07/22 01:49:16;;;;;;;10.25;4.72;;;20.80;62.90;;;;;;7381070;19;20011;-73
2023/07/22 01:51:45;;;;;;;10.77;5.18;;;20.70;63.10;;;;;;7380611;19;20007;-73
2023/07/22 01:54:15;;;;;;;10.15;5.38;;;20.70;63.30;;;;;;7380238;19;20006;-73
2023/07/22 01:56:46;;;;;;;8.00;5.05;;;20.70;63.60;;;;;;7402555;19;20009;-73
2023/07/22 01:59:14;;;;;;;;;;;20.70;64.00;;;;;;7381701;19;20007;-73
2023/07/22 02:01:43;;;;;;;14.05;5.53;;;20.70;64.30;;;;;;7380842;19;19953;-73
2023/07/22 02:04:14;;;;;;;11.05;5.18;;;20.60;64.90;;;;;;7380580;19;20009;-73
2023/07/22 02:06:44;;;;;;;10.73;5.43;;;20.60;64.00;;;;;;7381292;19;20011;-73
2023/07/22 02:09:13;;;;;;;9.52;5.25;;;20.60;63.80;;;;;;7379467;19;20003;-73
2023/07/22 02:11:42;;;;;;;9.95;5.47;;;20.60;63.60;;;;;;7402589;19;20070;-73
2023/07/22 02:14:13;;;;;;;9.43;5.70;;;20.60;63.70;;;;;;7381164;19;20007;-73
2023/07/22 02:16:42;;;;;;;;;;;20.50;63.70;;;;;;7381087;19;20010;-72
2023/07/22 02:19:08;;;;;;;12.82;5.78;;;20.50;63.80;;;;;;7380305;19;20211;-73
2023/07/22 02:21:37;;;;;;;10.05;5.88;;;20.50;63.70;;;;;;7381492;19;20002;-73
2023/07/22 02:24:07;;;;;;;7.75;5.35;;;20.40;63.90;;;;;;7402642;19;20014;-73
2023/07/22 02:26:36;;;;;;;9.93;6.10;;;20.40;64.10;;;;;;7381193;19;20010;-73
2023/07/22 02:29:04;;;;;;;10.50;6.45;;;20.30;64.40;;;;;;7380870;19;20024;-73
2023/07/22 02:31:36;;;;;;;6.55;4.95;;;20.30;64.50;;;;;;7380591;19;20378;-72
2023/07/22 02:34:04;;;;;;;9.38;5.30;;;20.20;64.80;;;;;;7383889;19;20003;-72
2023/07/22 02:36:34;;;;;;;10.32;6.10;;;20.20;65.00;;;;;;7386430;19;20006;-72
2023/07/22 02:39:03;;;;;;;11.43;5.78;;;20.10;65.00;;;;;;7406518;19;19999;-72
2023/07/22 02:41:31;;;;;;;10.95;5.82;;;20.10;65.10;;;;;;7386887;19;20037;-72
2023/07/22 02:44:00;;;;;;;10.82;6.13;;;20.00;65.20;;;;;;7382788;19;20003;-72
2023/07/22 02:46:29;;;;;;;8.73;5.50;;;20.10;65.50;;;;;;7382028;19;20015;-72
2023/07/22 02:49:00;;;;;;;9.80;5.95;;;20.10;65.50;;;;;;7382249;19;20011;-72
2023/07/22 02:51:29;;;;;;;;;;;20.10;65.50;;;;;;7384352;19;20011;-72
2023/07/22 02:53:58;;;;;;;11.02;6.38;;;20.10;65.50;;;;;;7402748;19;19918;-73
2023/07/22 02:56:26;;;;;;;8.50;5.82;;;20.10;65.40;;;;;;7381713;19;20012;-72
2023/07/22 02:58:55;;;;;;;11.15;6.55;;;20.00;65.50;;;;;;7381798;19;20007;-72
2023/07/22 03:01:24;;;;;;;9.73;6.53;;;20.00;65.80;;;;;;7381579;19;20078;-73
2023/07/22 03:03:53;;;;;;;8.65;5.88;;;19.90;65.90;;;;;;7380732;19;20025;-72
2023/07/22 03:06:26;;;;;;;19.90;6.45;;;19.90;66.00;;;;;;7379706;19;20255;-72
2023/07/22 03:08:55;;;;;;;11.05;6.45;;;19.80;66.30;;;;;;7405748;19;20022;-72
2023/07/22 03:11:25;;;;;;;13.00;5.68;;;19.80;66.60;;;;;;7382481;19;20014;-72
2023/07/22 03:13:53;;;;;;;9.77;6.20;;;19.80;66.60;;;;;;7381941;19;20002;-73
2023/07/22 03:16:22;;;;;;;12.23;6.18;;;19.80;66.50;;;;;;7379825;19;20011;-72
2023/07/22 03:18:52;;;;;;;11.15;6.05;;;19.80;67.50;;;;;;7385886;19;20018;-73
2023/07/22 03:21:20;;;;;;;13.55;6.60;;;19.80;66.70;;;;;;7386497;19;20014;-73
2023/07/22 03:23:52;;;;;;;18.83;6.55;;;19.70;66.90;;;;;;7409557;19;20516;-73
2023/07/22 03:26:20;;;;;;;;;;;19.80;66.70;;;;;;7390446;19;20007;-73
2023/07/22 03:28:49;;;;;;;14.90;6.45;;;19.80;66.60;;;;;;7389014;19;19930;-73
2023/07/22 03:31:18;;;;;;;9.93;6.40;;;19.70;66.70;;;;;;7388099;19;20063;-73
2023/07/22 03:33:48;;;;;;;14.32;6.70;;;19.70;66.80;;;;;;7385193;19;20003;-74
2023/07/22 03:36:16;;;;;;;12.70;6.35;;;19.60;67.20;;;;;;7386776;19;20038;-73
2023/07/22 03:38:45;;;;;;;11.68;6.85;;;19.60;67.30;;;;;;7405077;19;20011;-73
2023/07/22 03:41:16;;;;;;;15.90;7.53;;;19.60;67.30;;;;;;7384748;19;20006;-73
2023/07/22 03:43:46;;;;;;;12.80;7.32;;;19.60;67.30;;;;;;7390283;19;20078;-73
2023/07/22 03:46:14;;;;;;;13.07;7.10;;;19.60;67.30;;;;;;7389804;19;20010;-73
2023/07/22 03:48:43;;;;;;;13.10;7.13;;;19.60;67.30;;;;;;7388082;19;20285;-73
2023/07/22 03:51:12;;;;;;;11.35;6.97;;;19.60;67.40;;;;;;7385597;19;20006;-73
2023/07/22 03:53:40;;;;;;;12.50;6.45;;;19.60;67.40;;;;;;7405161;19;20027;-73
2023/07/22 03:56:09;;;;;;;10.80;7.20;;;19.60;67.40;;;;;;7385183;19;20038;-73
2023/07/22 03:58:41;;;;;;;9.10;6.60;;;19.50;67.40;;;;;;7384897;19;20295;-73
2023/07/22 04:01:09;;;;;;;12.00;6.45;;;19.50;67.60;;;;;;7383752;19;20038;-73
2023/07/22 04:03:39;;;;;;;12.63;6.80;;;19.40;67.80;;;;;;7385669;19;20041;-72
2023/07/22 04:06:08;;;;;;;12.30;7.18;;;19.40;68.00;;;;;;7403957;19;20265;-72
2023/07/22 04:08:37;;;;;;;15.52;7.03;;;19.20;68.20;;;;;;7384177;19;20027;-72
2023/07/22 04:11:06;;;;;;;16.40;7.85;;;19.20;68.40;;;;;;7384357;19;20364;-72
2023/07/22 04:13:35;;;;;;;13.40;7.45;;;19.10;68.60;;;;;;7383766;19;20002;-72
2023/07/22 04:16:06;;;;;;;10.73;7.22;;;19.10;68.80;;;;;;7384890;19;20038;-72
2023/07/22 04:18:35;;;;;;;17.45;7.55;;;19.10;68.90;;;;;;7383651;19;20019;-72
2023/07/22 04:21:07;;;;;;;13.07;7.35;;;19.00;69.00;;;;;;7405916;19;20062;-72
2023/07/22 04:23:36;;;;;;;13.63;8.10;;;19.10;69.10;;;;;;7384549;19;20349;-73
2023/07/22 04:26:07;;;;;;;13.48;7.63;;;19.00;69.00;;;;;;7384358;19;20007;-74
2023/07/22 04:28:36;;;;;;;12.37;7.60;;;19.00;69.00;;;;;;7384743;19;20073;-73
2023/07/22 04:31:09;;;;;;;17.27;7.70;;;19.00;69.10;;;;;;7384346;19;19999;-73
2023/07/22 04:33:37;;;;;;;12.80;7.75;;;19.00;69.40;;;;;;7386833;19;20006;-73
2023/07/22 04:36:06;;;;;;;14.23;7.50;;;19.00;69.30;;;;;;7408030;19;20038;-73
2023/07/22 04:38:35;;;;;;;11.68;7.28;;;19.00;69.50;;;;;;7387485;19;20046;-73
2023/07/22 04:41:05;;;;;;;13.68;7.22;;;19.00;69.40;;;;;;7385116;19;20011;-73
2023/07/22 04:43:34;;;;;;;11.20;7.13;;;19.00;69.40;;;;;;7384482;19;20007;-73
2023/07/22 04:46:03;;;;;;;16.60;7.63;;;19.10;69.30;;;;;;7383783;19;20007;-73
2023/07/22 04:48:34;;;;;;;13.93;7.20;;;19.10;69.20;;;;;;7382414;19;19996;-73
2023/07/22 04:51:03;;;;;;;16.50;6.85;;;19.10;69.30;;;;;;7404777;19;19999;-73
2023/07/22 04:53:32;;;;;;;11.45;7.70;;;19.10;69.30;;;;;;7385333;19;20002;-73
2023/07/22 04:56:02;;;;;;;12.18;7.53;;;19.10;69.30;;;;;;7386392;19;20075;-73
2023/07/22 04:58:30;;;;;;;15.32;7.68;;;19.10;69.30;;;;;;7385386;19;20037;-73
2023/07/22 05:01:01;;;;;;;12.40;7.00;;;19.10;70.20;;;;;;7383066;19;20023;-73
2023/07/22 05:03:30;;;;;;;11.95;7.18;;;19.10;70.30;;;;;;7383163;19;21691;-73
2023/07/22 05:06:02;;;;;;;10.65;6.55;;;19.10;69.70;;;;;;7405216;19;20017;-73
2023/07/22 05:08:30;;;;;;;12.70;7.40;;;19.10;69.80;;;;;;7384575;19;20014;-73
2023/07/22 05:10:59;;;;;;;13.43;7.13;;;19.10;70.10;;;;;;7383723;19;20026;-73
2023/07/22 05:13:28;;;;;;;16.83;6.82;;;19.10;70.30;;;;;;7382669;19;20011;-73
2023/07/22 05:15:56;;;;;;;12.45;7.82;;;19.10;70.20;;;;;;7385750;19;20027;-73
2023/07/22 05:18:25;;;;;;;13.23;7.32;;;19.10;70.20;;;;;;7386304;19;20271;-73
2023/07/22 05:20:54;;;;;;;13.43;7.05;;;19.10;70.10;;;;;;7407380;19;20018;-73
2023/07/22 05:23:25;;;;;;;12.73;7.18;;;19.20;70.20;;;;;;7383839;19;20002;-73
2023/07/22 05:25:54;;;;;;;16.73;7.47;;;19.20;70.10;;;;;;7383922;19;19999;-73
2023/07/22 05:28:23;;;;;;;12.80;7.18;;;19.20;70.00;;;;;;7381812;19;20046;-73
2023/07/22 05:30:52;;;;;;;14.02;7.57;;;19.30;70.30;;;;;;7385282;19;20003;-73
2023/07/22 05:33:22;;;;;;;13.23;7.75;;;19.20;70.30;;;;;;7380603;19;20229;-73
2023/07/22 05:35:51;;;;;;;12.38;7.18;;;19.30;70.50;;;;;;7401637;19;20010;-73
2023/07/22 05:38:20;;;;;;;17.85;7.57;;;19.30;71.00;;;;;;7381218;19;20012;-73
2023/07/22 05:40:51;;;;;;;12.93;7.07;;;19.20;71.10;;;;;;7379833;19;20101;-73
2023/07/22 05:43:20;;;;;;;;;;;19.20;71.20;;;;;;7384304;19;20011;-73
2023/07/22 05:45:48;;;;;;;14.05;7.55;;;19.30;71.00;;;;;;7384076;19;19915;-73
2023/07/22 05:48:17;;;;;;;14.73;7.18;;;19.30;71.00;;;;;;7385844;19;20011;-73
2023/07/22 05:50:47;;;;;;;15.73;7.75;;;19.30;71.10;;;;;;7404825;19;20015;-73
2023/07/22 05:53:16;;;;;;;12.63;7.35;;;19.30;70.90;;;;;;7380372;19;20028;-73
2023/07/22 05:55:45;;;;;;;14.70;7.55;;;19.30;70.60;;;;;;7380975;19;20373;-73
2023/07/22 05:58:21;;;;;;;19.92;7.80;;;19.40;70.30;;;;;;7380497;19;20011;-73
2023/07/22 06:00:51;;;;;;;14.88;7.63;;;19.40;70.40;;;;;;7383364;19;20010;-73
2023/07/22 06:03:20;;;;;;;13.00;8.07;;;19.50;70.50;;;;;;7384944;19;20011;-73
2023/07/22 06:05:49;;;;;;;13.35;7.95;;;19.60;70.10;;;;;;7405720;19;20011;-73
2023/07/22 06:08:18;;;;;;;16.02;7.85;;;19.60;70.10;;;;;;7380083;19;20014;-72
2023/07/22 06:10:47;;;;;;;10.80;7.05;;;19.70;70.20;;;;;;7379942;19;20011;-73
2023/07/22 06:13:15;;;;;;;12.23;6.97;;;19.70;70.00;;;;;;7380696;19;20023;-73
2023/07/22 06:15:47;;;;;;;17.45;7.10;;;19.80;69.90;;;;;;7379090;19;20319;-73
2023/07/22 06:18:15;;;;;;;17.75;8.93;;;19.90;69.70;;;;;;7379220;19;20007;-73
2023/07/22 06:20:44;;;;;;;13.63;7.47;;;19.90;69.50;;;;;;7402175;19;20014;-73
2023/07/22 06:23:13;;;;;;;9.57;6.85;;;20.00;69.20;;;;;;7379276;19;20016;-73
2023/07/22 06:25:42;;;;;;;14.10;7.70;;;20.10;69.40;;;;;;7382288;19;20003;-73
2023/07/22 06:28:11;;;;;;;15.63;7.18;;;20.10;69.40;;;;;;7380753;19;20002;-73
2023/07/22 06:30:40;;;;;;;11.15;7.22;;;20.10;69.40;;;;;;7378634;19;20011;-73
2023/07/22 06:33:11;;;;;;;14.43;6.97;;;20.20;69.40;;;;;;7400488;19;20028;-73
2023/07/22 06:35:40;;;;;;;16.00;7.55;;;20.30;69.50;;;;;;7380649;19;20016;-73
2023/07/22 06:38:09;;;;;;;14.57;7.97;;;20.40;69.40;;;;;;7379223;19;20239;-73
2023/07/22 06:40:38;;;;;;;18.85;7.35;;;20.50;69.40;;;;;;7379409;19;20007;-72
2023/07/22 06:43:06;;;;;;;19.80;7.43;;;20.60;69.20;;;;;;7381204;19;20011;-72
2023/07/22 06:45:36;;;;;;;15.57;7.53;;;20.70;69.10;;;;;;7381029;19;20010;-72
2023/07/22 06:48:05;;;;;;;12.48;7.32;;;20.70;68.80;;;;;;7405924;19;20066;-72
2023/07/22 06:50:36;;;;;;;16.90;7.47;;;20.80;68.90;;;;;;7383427;19;20009;-74
2023/07/22 06:53:05;;;;;;;;;;;20.90;68.90;;;;;;7389666;19;20267;-72
2023/07/22 06:55:34;;;;;;;16.40;7.88;;;21.00;69.10;;;;;;7394303;19;19903;-72
2023/07/22 06:58:02;;;;;;;12.52;7.00;;;21.00;69.30;;;;;;7395950;19;20015;-72
2023/07/22 07:00:31;;;;;;;14.30;7.00;;;21.00;69.60;;;;;;7392786;19;20000;-72
2023/07/22 07:03:00;;;;;;;16.20;7.93;;;21.00;69.90;;;;;;7409529;19;20014;-72
2023/07/22 07:05:29;;;;;;;16.60;8.20;;;21.00;70.20;;;;;;7388907;19;20010;-72
2023/07/22 07:08:00;;;;;;;14.75;7.30;;;21.00;70.40;;;;;;7388625;19;20002;-72
2023/07/22 07:10:28;;;;;;;;;;;21.10;70.80;;;;;;7393733;19;20016;-71
2023/07/22 07:12:58;;;;;;;17.92;7.32;;;21.20;70.90;;;;;;7392627;19;19923;-72
2023/07/22 07:15:26;;;;;;;16.63;9.60;;;21.20;71.00;;;;;;7390836;19;20476;-72
2023/07/22 07:17:55;;;;;;;17.50;7.93;;;21.40;71.10;;;;;;7408754;19;20062;-72
2023/07/22 07:20:24;;;;;;;14.68;8.05;;;21.40;71.60;;;;;;7387350;19;20023;-72
2023/07/22 07:22:55;;;;;;;18.90;8.40;;;21.50;71.70;;;;;;7389926;19;20010;-72
2023/07/22 07:25:26;;;;;;;14.25;7.47;;;21.60;71.60;;;;;;7386165;19;20030;-72
2023/07/22 07:27:55;;;;;;;;;;;21.70;71.80;;;;;;7388538;19;20006;-73
2023/07/22 07:30:26;;;;;;;13.60;6.82;;;21.70;72.00;;;;;;7385453;19;20141;-73
2023/07/22 07:32:54;;;;;;;13.38;7.00;;;21.70;71.40;;;;;;7406189;19;20007;-73
2023/07/22 07:35:24;;;;;;;12.80;7.05;;;21.60;72.00;;;;;;7384134;19;20015;-72
2023/07/22 07:37:52;;;;;;;15.95;7.05;;;21.50;72.30;;;;;;7386400;19;19999;-72
2023/07/22 07:40:21;;;;;;;17.00;7.43;;;21.40;72.60;;;;;;7385592;19;20055;-72
2023/07/22 07:42:53;;;;;;;12.55;6.95;;;21.20;72.90;;;;;;7385251;19;20254;-72
2023/07/22 07:45:22;;;;;;;9.90;6.60;;;21.40;73.00;;;;;;7387379;19;20011;-72
2023/07/22 07:47:50;;;;;;;12.25;7.03;;;21.30;72.80;;;;;;7405039;19;20027;-72
2023/07/22 07:50:19;;;;;;;17.55;7.72;;;21.30;73.00;;;;;;7386392;19;20373;-72
2023/07/22 07:52:48;;;;;;;10.15;6.55;;;21.20;72.90;;;;;;7386273;19;20028;-72
2023/07/22 07:55:16;;;;;;;15.00;7.53;;;21.30;73.00;;;;;;7385425;19;20003;-72
2023/07/22 07:57:45;;;;;;;14.80;6.93;;;21.30;73.10;;;;;;7385080;19;20011;-72
2023/07/22 08:00:17;;;;;;;15.70;7.95;;;21.30;72.90;;;;;;7386200;19;20361;-72
2023/07/22 08:02:46;;;;;;;16.65;6.90;;;21.30;72.50;;;;;;7405365;19;20010;-72
2023/07/22 08:05:16;;;;;;;12.75;7.45;;;21.20;73.00;;;;;;7384135;19;20353;-72
2023/07/22 08:07:44;;;;;;;15.93;7.82;;;21.20;72.80;;;;;;7385508;19;20014;-72
2023/07/22 08:10:13;;;;;;;12.35;7.47;;;21.30;72.60;;;;;;7383736;19;20374;-72
2023/07/22 08:12:42;;;;;;;12.57;6.95;;;21.40;72.90;;;;;;7383515;19;20048;-72
2023/07/22 08:15:12;;;;;;;16.65;7.45;;;21.50;72.70;;;;;;7393388;19;20020;-72
2023/07/22 08:17:43;;;;;;;19.75;6.97;;;21.70;72.60;;;;;;7407792;19;20241;-72
2023/07/22 08:20:12;;;;;;;;;;;21.80;72.00;;;;;;7388692;19;20212;-73
2023/07/22 08:22:41;;;;;;;11.98;6.45;;;21.90;70.90;;;;;;7388409;19;20004;-72
2023/07/22 08:25:10;;;;;;;12.55;6.50;;;21.80;70.30;;;;;;7387884;19;20373;-72
2023/07/22 08:27:39;;;;;;;10.05;7.05;;;21.90;70.70;;;;;;7385012;19;20007;-72
2023/07/22 08:30:10;;;;;;;15.32;6.97;;;22.00;70.80;;;;;;7403615;19;20220;-73
2023/07/22 08:32:38;;;;;;;13.13;6.85;;;21.90;70.40;;;;;;7384186;19;20010;-72
2023/07/22 08:35:11;;;;;;;13.32;6.75;;;21.90;70.20;;;;;;7382062;19;20011;-72
2023/07/22 08:37:39;;;;;;;13.75;6.75;;;21.90;70.40;;;;;;7383166;19;20003;-72
2023/07/22 08:40:10;;;;;;;25.40;7.28;;;22.00;70.40;;;;;;7383090;19;20058;-73
2023/07/22 08:42:40;;;;;;;18.15;6.75;;;22.00;70.40;;;;;;7382019;19;20006;-73
2023/07/22 08:45:15;;;;;;;11.75;5.72;;;22.00;69.30;;;;;;7405934;19;20011;-72
2023/07/22 08:47:49;;;;;;;11.80;5.70;;;22.00;68.60;;;;;;7383635;19;20030;-73
2023/07/22 11:00:03;;;;;;;5.93;3.53;;;23.80;59.70;;;;;;7417221;19;20010;-76
2023/07/22 11:02:32;;;;;;;7.57;4.00;;;23.70;59.20;;;;;;7415224;19;20007;-77
2023/07/22 11:05:38;;;;;;;;;;;;;;;;;;;;;
2023/07/22 11:08:17;;;;;;;6.10;4.00;;;23.80;58.70;;;;;;7417017;19;20847;-76
2023/07/22 11:11:01;;;;;;;8.65;4.53;;;23.70;59.20;;;;;;7418054;19;20014;-75
2023/07/22 11:13:31;;;;;;;9.15;4.22;;;23.70;59.20;;;;;;7419212;19;20006;-76
2023/07/22 11:16:03;;;;;;;13.02;6.40;;;23.60;59.90;;;;;;7418242;19;20476;-75
2023/07/22 11:18:49;;;;;;;13.55;6.60;;;23.80;58.90;;;;;;7419175;19;19998;-76
2023/07/22 11:21:18;;;;;;;7.78;3.88;;;24.10;59.00;;;;;;7418275;19;20012;-75
2023/07/22 11:23:47;;;;;;;6.40;3.97;;;24.10;58.20;;;;;;7415370;19;20009;-76
2023/07/22 11:26:18;;;;;;;15.00;3.80;;;24.00;57.80;;;;;;7414307;19;20003;-76
2023/07/22 11:28:49;;;;;;;5.20;3.70;;;24.10;58.40;;;;;;7439969;19;20295;-75
2023/07/22 11:31:15;;;;;;;7.30;3.75;;;23.90;57.90;;;;;;7420049;19;20009;-74
2023/07/22 11:33:47;;;;;;;5.43;3.55;;;24.00;58.00;;;;;;7422561;19;20473;-76
2023/07/22 11:36:16;;;;;;;8.80;3.78;;;24.00;58.90;;;;;;7415966;19;20010;-75
2023/07/22 11:38:44;;;;;;;5.32;3.80;;;24.10;58.10;;;;;;7415386;19;20059;-76
2023/07/22 11:41:13;;;;;;;4.88;3.50;;;24.10;58.00;;;;;;7435437;19;20007;-75
2023/07/22 15:37:47;;;;;;;7.40;3.95;;;27.70;50.90;;;;;;7385434;19;20017;-78
2023/07/22 15:46:39;;;;;;;11.93;5.43;;;28.50;50.20;;;;;;7359417;19;20007;-76
2023/07/22 15:55:12;;;;;;;4.53;3.83;;;29.80;47.80;;;;;;7385550;19;20009;-76
2023/07/22 15:58:09;;;;;;;8.20;3.95;;;30.10;47.80;;;;;;7381883;19;20013;-77
2023/07/22 16:00:56;;;;;;;7.97;3.70;;;30.30;46.90;;;;;;7404461;19;20234;-76
2023/07/22 16:03:25;;;;;;;9.70;3.60;;;30.70;46.80;;;;;;7386209;19;20389;-76
2023/07/22 16:32:44;;;;;;;;;;;;;;;;;;;;;
2023/07/22 16:38:49;;;;;;;;;;;;;;;;;;;;;
2023/07/22 16:41:59;;;;;;;7.57;3.70;;;31.90;44.60;;;;;;7414234;19;20067;-78
2023/07/22 17:04:34;;;;;;;4.60;3.03;;;35.60;40.30;;;;;;803201;19;16089830;-77
2023/07/22 17:24:14;;;;;;;;;;;;;;;;;;;;;
2023/07/22 17:27:22;;;;;;;7.10;3.10;;;35.20;39.90;;;;;;7418001;19;20289;-76
2023/07/22 17:30:02;;;;;;;;;;;;;;;;;;;;;
2023/07/22 17:32:54;;;;;;;;;;;;;;;;;;;;;
2023/07/22 17:35:42;;;;;;;;;;;;;;;;;;;;;
2023/07/22 17:38:34;;;;;;;;;;;;;;;;;;;;;
2023/07/22 17:41:58;;;;;;;14.20;3.88;;;34.70;40.10;;;;;;7441520;19;20010;-77
2023/07/22 17:50:32;;;;;;;6.20;3.55;;;34.80;40.50;;;;;;7415858;19;20391;-76
2023/07/22 17:53:33;;;;;;;5.13;3.20;;;34.10;40.70;;;;;;7437352;19;20235;-77
2023/07/22 18:02:12;;;;;;;;;;;;;;;;;;;;;
2023/07/22 18:05:07;;;;;;;4.30;3.20;;;34.20;40.50;;;;;;7417253;19;20011;-76
2023/07/22 18:07:57;;;;;;;5.53;3.70;;;34.30;40.40;;;;;;7432844;19;20006;-76
2023/07/22 18:14:13;;;;;;;6.75;3.45;;;34.40;41.20;;;;;;7410962;19;20065;-76
2023/07/22 18:16:55;;;;;;;;;;;;;;;;;;;;;
2023/07/22 18:36:39;;;;;;;8.63;3.05;;;35.20;40.20;;;;;;7416863;19;20457;-76
2023/07/22 18:45:43;;;;;;;8.05;3.25;;;34.40;40.90;;;;;;7417201;19;20011;-76
2023/07/22 18:48:23;;;;;;;10.35;3.33;;;34.40;40.90;;;;;;7417102;19;20052;-77
2023/07/22 18:51:14;;;;;;;8.25;3.22;;;34.30;41.10;;;;;;7417114;19;20014;-75
2023/07/22 18:54:11;;;;;;;;;;;34.10;41.40;;;;;;7416236;19;20006;-74
2023/07/22 18:56:52;;;;;;;8.07;3.63;;;33.70;41.60;;;;;;7416244;19;19907;-76
2023/07/22 18:59:37;;;;;;;10.15;3.97;;;33.20;42.60;;;;;;7441359;19;20052;-74
2023/07/22 19:02:40;;;;;;;;;;;;;;;;;;;;;
2023/07/22 19:05:39;;;;;;;6.55;3.42;;;31.70;43.80;;;;;;7317034;19;2020585;-77
2023/07/22 19:08:46;;;;;;;10.40;3.85;;;30.70;45.10;;;;;;7438285;19;20042;-78
2023/07/22 19:14:21;;;;;;;10.15;4.95;;;29.50;46.90;;;;;;7411162;19;20021;-76
2023/07/22 19:17:30;;;;;;;;;;;;;;;;;;;;;
2023/07/22 19:20:27;;;;;;;30.45;13.65;;;28.90;48.00;;;;;;7413239;19;20835;-76
2023/07/22 19:23:10;;;;;;;;;;;;;;;;;;;;;
2023/07/22 19:25:40;;;;;;;8.18;3.55;;;28.40;48.90;;;;;;7412837;19;20002;-76
2023/07/22 19:28:36;;;;;;;;;;;;;;;;;;;;;
2023/07/22 19:31:11;;;;;;;7.20;3.30;;;28.00;49.70;;;;;;7412088;19;20006;-76
2023/07/22 19:37:35;;;;;;;;;;;;;;;;;;;;;
2023/07/22 19:40:06;;;;;;;25.73;8.05;;;27.60;50.70;;;;;;7416396;19;20031;-76
2023/07/22 19:42:55;;;;;;;;;;;;;;;;;;;;;
2023/07/22 19:49:11;;;;;;;;;;;;;;;;;;;;;
2023/07/22 19:52:16;;;;;;;10.23;3.72;;;27.20;51.60;;;;;;7413392;19;20010;-77
2023/07/22 19:55:34;;;;;;;;;;;;;;;;;;;;;
2023/07/22 19:58:26;;;;;;;;;;;;;;;;;;;;;
2023/07/22 20:01:39;;;;;;;15.60;4.03;;;27.00;52.50;;;;;;7435800;19;20018;-77
2023/07/22 20:23:52;;;;;;;;;;;;;;;;;;;;;
2023/07/22 20:47:07;;;;;;;;;;;;;;;;;;;;;
2023/07/22 20:53:04;;;;;;;;;;;;;;;;;;;;;
2023/07/22 20:56:23;;;;;;;;;;;;;;;;;;;;;
2023/07/22 21:12:46;;;;;;;15.25;3.50;;;25.80;54.70;;;;;;7415345;19;20356;-74
2023/07/22 21:15:40;;;;;;;;;;;;;;;;;;;;;
2023/07/22 21:18:37;;;;;;;6.13;3.33;;;25.60;55.00;;;;;;7416133;19;20435;-74
2023/07/22 21:21:39;;;;;;;6.65;2.50;;;25.50;55.20;;;;;;7410811;19;20231;-76
2023/07/22 21:24:23;;;;;;;;;;;;;;;;;;;;;
2023/07/22 21:27:17;;;;;;;6.03;3.28;;;25.50;55.60;;;;;;7435665;19;20003;-75
2023/07/22 21:30:28;;;;;;;6.40;2.83;;;25.50;55.90;;;;;;7412085;19;20340;-75
2023/07/22 21:33:08;;;;;;;;;;;;;;;;;;;;;
2023/07/22 21:35:58;;;;;;;;;;;;;;;;;;;;;
2023/07/22 21:38:29;;;;;;;7.60;2.90;;;25.50;56.60;;;;;;7414546;19;20022;-75
2023/07/22 21:41:03;;;;;;;6.85;2.75;;;25.40;56.40;;;;;;7453514;19;20027;-74
2023/07/22 21:43:48;;;;;;;;;;;;;;;;;;;;;
2023/07/22 21:46:43;;;;;;;;;;;;;;;;;;;;;
2023/07/22 22:03:09;;;;;;;7.53;2.65;;;25.10;56.60;;;;;;7416508;19;20436;-76
2023/07/22 22:09:16;;;;;;;7.07;2.30;;;25.00;56.60;;;;;;7415881;19;20203;-75
2023/07/22 23:14:06;;;;;;;;;;;;;;;;;;;;;
2023/07/22 23:17:39;;;;;;;;;;;;;;;;;;;;;
